San Angelo, Texas
Current Conditions -  °F | °C
As of 3:51 PM on Sunday 25 Jan 2015 (Local Time) from KSJT Reporting Station
Clear Clear  
Wind Chill: 66°   Ceiling: Unl
Heat Index: 66°   Visibility: 10mi
Dew Point: 29°   Wind: 8mph
Humidity: 25%   Direction: 360°N
Pressure: 30.18"   Gusts: NA
Location:  31.46°N, 100.44°W
Report Text: KSJT 252151Z 36007KT 10SM CLR 19/M02 A3018 RMK AO2 SLP219 T01891017
Loading
Personal Weather Stations






























Interactive Weather Map New forecast layout! Learn more

10-Day Weather Forecast

Advertisements
Track Severe Weather on mobile